sensor_id;sensor_type;location;lat;lon;timestamp;P1;durP1;ratioP1;P2;durP2;ratioP2
52386;SDS011;38317;53.084;6.960;2023-07-09T00:02:14;7.10;;;3.40;;
52386;SDS011;38317;53.084;6.960;2023-07-09T00:04:41;6.53;;;3.38;;
52386;SDS011;38317;53.084;6.960;2023-07-09T00:07:15;6.47;;;3.40;;
52386;SDS011;38317;53.084;6.960;2023-07-09T00:09:46;5.35;;;3.33;;
52386;SDS011;38317;53.084;6.960;2023-07-09T00:12:12;6.53;;;3.20;;
52386;SDS011;38317;53.084;6.960;2023-07-09T00:14:40;7.38;;;3.70;;
52386;SDS011;38317;53.084;6.960;2023-07-09T00:17:17;6.18;;;3.53;;
52386;SDS011;38317;53.084;6.960;2023-07-09T00:19:46;6.35;;;3.50;;
52386;SDS011;38317;53.084;6.960;2023-07-09T00:22:13;6.10;;;3.47;;
52386;SDS011;38317;53.084;6.960;2023-07-09T00:24:46;6.47;;;3.40;;
52386;SDS011;38317;53.084;6.960;2023-07-09T00:27:16;7.38;;;3.97;;
52386;SDS011;38317;53.084;6.960;2023-07-09T00:29:43;8.23;;;3.50;;
52386;SDS011;38317;53.084;6.960;2023-07-09T00:32:16;6.88;;;3.58;;
52386;SDS011;38317;53.084;6.960;2023-07-09T00:34:48;6.22;;;3.40;;
52386;SDS011;38317;53.084;6.960;2023-07-09T00:37:18;6.43;;;3.83;;
52386;SDS011;38317;53.084;6.960;2023-07-09T00:39:45;7.05;;;3.85;;
52386;SDS011;38317;53.084;6.960;2023-07-09T00:42:17;6.05;;;3.80;;
52386;SDS011;38317;53.084;6.960;2023-07-09T00:44:44;7.63;;;3.73;;
52386;SDS011;38317;53.084;6.960;2023-07-09T00:47:22;6.28;;;3.65;;
52386;SDS011;38317;53.084;6.960;2023-07-09T00:49:52;7.88;;;3.50;;
52386;SDS011;38317;53.084;6.960;2023-07-09T00:52:45;6.50;;;3.50;;
52386;SDS011;38317;53.084;6.960;2023-07-09T00:55:25;6.03;;;3.35;;
52386;SDS011;38317;53.084;6.960;2023-07-09T00:57:58;8.23;;;3.63;;
52386;SDS011;38317;53.084;6.960;2023-07-09T01:00:34;8.15;;;4.25;;
52386;SDS011;38317;53.084;6.960;2023-07-09T01:03:16;6.03;;;3.45;;
52386;SDS011;38317;53.084;6.960;2023-07-09T01:05:47;6.63;;;3.97;;
52386;SDS011;38317;53.084;6.960;2023-07-09T01:08:20;6.20;;;3.40;;
52386;SDS011;38317;53.084;6.960;2023-07-09T01:10:46;5.90;;;3.55;;
52386;SDS011;38317;53.084;6.960;2023-07-09T01:13:12;6.78;;;3.67;;
52386;SDS011;38317;53.084;6.960;2023-07-09T01:15:38;7.25;;;3.58;;
52386;SDS011;38317;53.084;6.960;2023-07-09T01:18:05;6.40;;;3.60;;
52386;SDS011;38317;53.084;6.960;2023-07-09T01:20:31;7.20;;;3.33;;
52386;SDS011;38317;53.084;6.960;2023-07-09T01:22:58;6.45;;;3.60;;
52386;SDS011;38317;53.084;6.960;2023-07-09T01:25:26;8.60;;;4.10;;
52386;SDS011;38317;53.084;6.960;2023-07-09T01:27:53;7.50;;;3.78;;
52386;SDS011;38317;53.084;6.960;2023-07-09T01:30:24;7.57;;;3.80;;
52386;SDS011;38317;53.084;6.960;2023-07-09T01:33:00;7.35;;;3.78;;
52386;SDS011;38317;53.084;6.960;2023-07-09T01:35:27;7.88;;;3.42;;
52386;SDS011;38317;53.084;6.960;2023-07-09T01:37:54;7.72;;;3.85;;
52386;SDS011;38317;53.084;6.960;2023-07-09T01:40:21;10.57;;;4.93;;
52386;SDS011;38317;53.084;6.960;2023-07-09T01:42:49;6.18;;;3.80;;
52386;SDS011;38317;53.084;6.960;2023-07-09T01:45:15;8.20;;;3.90;;
52386;SDS011;38317;53.084;6.960;2023-07-09T01:47:41;7.97;;;3.88;;
52386;SDS011;38317;53.084;6.960;2023-07-09T01:50:09;7.50;;;4.07;;
52386;SDS011;38317;53.084;6.960;2023-07-09T01:52:36;7.97;;;4.43;;
52386;SDS011;38317;53.084;6.960;2023-07-09T01:55:04;7.07;;;3.97;;
52386;SDS011;38317;53.084;6.960;2023-07-09T01:57:30;6.35;;;3.70;;
52386;SDS011;38317;53.084;6.960;2023-07-09T01:59:59;8.90;;;4.07;;
52386;SDS011;38317;53.084;6.960;2023-07-09T02:02:27;6.20;;;3.83;;
52386;SDS011;38317;53.084;6.960;2023-07-09T02:04:54;6.53;;;3.72;;
52386;SDS011;38317;53.084;6.960;2023-07-09T02:07:21;7.78;;;4.50;;
52386;SDS011;38317;53.084;6.960;2023-07-09T02:09:49;7.57;;;4.07;;
52386;SDS011;38317;53.084;6.960;2023-07-09T02:12:15;7.20;;;4.22;;
52386;SDS011;38317;53.084;6.960;2023-07-09T02:14:42;7.45;;;4.60;;
52386;SDS011;38317;53.084;6.960;2023-07-09T02:17:09;6.95;;;4.10;;
52386;SDS011;38317;53.084;6.960;2023-07-09T02:19:36;7.47;;;4.25;;
52386;SDS011;38317;53.084;6.960;2023-07-09T02:22:02;8.18;;;4.47;;
52386;SDS011;38317;53.084;6.960;2023-07-09T02:24:29;7.32;;;3.88;;
52386;SDS011;38317;53.084;6.960;2023-07-09T02:26:55;7.10;;;4.07;;
52386;SDS011;38317;53.084;6.960;2023-07-09T02:29:22;7.28;;;3.90;;
52386;SDS011;38317;53.084;6.960;2023-07-09T02:31:49;6.95;;;3.88;;
52386;SDS011;38317;53.084;6.960;2023-07-09T02:34:16;6.10;;;3.70;;
52386;SDS011;38317;53.084;6.960;2023-07-09T02:36:42;8.50;;;3.88;;
52386;SDS011;38317;53.084;6.960;2023-07-09T02:39:12;6.72;;;3.80;;
52386;SDS011;38317;53.084;6.960;2023-07-09T02:41:39;7.93;;;4.20;;
52386;SDS011;38317;53.084;6.960;2023-07-09T02:44:05;6.82;;;4.03;;
52386;SDS011;38317;53.084;6.960;2023-07-09T02:46:31;9.38;;;4.07;;
52386;SDS011;38317;53.084;6.960;2023-07-09T02:48:57;6.95;;;4.03;;
52386;SDS011;38317;53.084;6.960;2023-07-09T02:51:24;7.35;;;4.00;;
52386;SDS011;38317;53.084;6.960;2023-07-09T02:53:55;8.35;;;4.13;;
52386;SDS011;38317;53.084;6.960;2023-07-09T02:56:22;7.47;;;3.80;;
52386;SDS011;38317;53.084;6.960;2023-07-09T02:58:47;6.25;;;4.13;;
52386;SDS011;38317;53.084;6.960;2023-07-09T03:01:14;8.10;;;4.47;;
52386;SDS011;38317;53.084;6.960;2023-07-09T03:03:40;7.32;;;4.03;;
52386;SDS011;38317;53.084;6.960;2023-07-09T03:06:05;6.97;;;3.95;;
52386;SDS011;38317;53.084;6.960;2023-07-09T03:08:31;7.28;;;4.38;;
52386;SDS011;38317;53.084;6.960;2023-07-09T03:10:57;7.18;;;4.32;;
52386;SDS011;38317;53.084;6.960;2023-07-09T03:13:23;8.45;;;4.15;;
52386;SDS011;38317;53.084;6.960;2023-07-09T03:15:56;7.90;;;4.38;;
52386;SDS011;38317;53.084;6.960;2023-07-09T03:18:22;7.65;;;4.30;;
52386;SDS011;38317;53.084;6.960;2023-07-09T03:20:48;7.45;;;4.30;;
52386;SDS011;38317;53.084;6.960;2023-07-09T03:23:14;8.70;;;4.53;;
52386;SDS011;38317;53.084;6.960;2023-07-09T03:25:40;7.68;;;4.43;;
52386;SDS011;38317;53.084;6.960;2023-07-09T03:28:06;9.27;;;4.60;;
52386;SDS011;38317;53.084;6.960;2023-07-09T03:30:32;7.47;;;4.07;;
52386;SDS011;38317;53.084;6.960;2023-07-09T03:32:58;7.65;;;3.80;;
52386;SDS011;38317;53.084;6.960;2023-07-09T03:35:25;8.15;;;4.05;;
52386;SDS011;38317;53.084;6.960;2023-07-09T03:37:51;8.32;;;4.10;;
52386;SDS011;38317;53.084;6.960;2023-07-09T03:40:23;7.35;;;3.75;;
52386;SDS011;38317;53.084;6.960;2023-07-09T03:42:52;8.00;;;4.13;;
52386;SDS011;38317;53.084;6.960;2023-07-09T03:45:17;6.88;;;4.20;;
52386;SDS011;38317;53.084;6.960;2023-07-09T03:47:43;6.70;;;4.03;;
52386;SDS011;38317;53.084;6.960;2023-07-09T03:50:09;7.47;;;4.20;;
52386;SDS011;38317;53.084;6.960;2023-07-09T03:52:36;7.32;;;3.95;;
52386;SDS011;38317;53.084;6.960;2023-07-09T03:55:02;6.03;;;4.03;;
52386;SDS011;38317;53.084;6.960;2023-07-09T03:57:29;7.30;;;3.95;;
52386;SDS011;38317;53.084;6.960;2023-07-09T03:59:55;7.03;;;4.28;;
52386;SDS011;38317;53.084;6.960;2023-07-09T04:02:21;8.10;;;4.00;;
52386;SDS011;38317;53.084;6.960;2023-07-09T04:04:47;8.35;;;4.47;;
52386;SDS011;38317;53.084;6.960;2023-07-09T04:07:14;6.50;;;3.90;;
52386;SDS011;38317;53.084;6.960;2023-07-09T04:09:40;7.88;;;3.97;;
52386;SDS011;38317;53.084;6.960;2023-07-09T04:12:06;7.53;;;4.07;;
52386;SDS011;38317;53.084;6.960;2023-07-09T04:14:33;6.55;;;3.58;;
52386;SDS011;38317;53.084;6.960;2023-07-09T04:16:59;7.80;;;4.10;;
52386;SDS011;38317;53.084;6.960;2023-07-09T04:19:25;7.38;;;4.35;;
52386;SDS011;38317;53.084;6.960;2023-07-09T04:21:51;6.32;;;3.90;;
52386;SDS011;38317;53.084;6.960;2023-07-09T04:24:17;6.72;;;3.75;;
52386;SDS011;38317;53.084;6.960;2023-07-09T04:26:43;6.70;;;4.13;;
52386;SDS011;38317;53.084;6.960;2023-07-09T04:29:09;8.13;;;3.83;;
52386;SDS011;38317;53.084;6.960;2023-07-09T04:31:36;6.68;;;3.88;;
52386;SDS011;38317;53.084;6.960;2023-07-09T04:34:02;9.73;;;3.80;;
52386;SDS011;38317;53.084;6.960;2023-07-09T04:36:29;6.40;;;3.70;;
52386;SDS011;38317;53.084;6.960;2023-07-09T04:38:54;8.15;;;4.60;;
52386;SDS011;38317;53.084;6.960;2023-07-09T04:41:20;8.13;;;4.50;;
52386;SDS011;38317;53.084;6.960;2023-07-09T04:43:46;7.03;;;3.80;;
52386;SDS011;38317;53.084;6.960;2023-07-09T04:46:12;6.95;;;3.83;;
52386;SDS011;38317;53.084;6.960;2023-07-09T04:48:37;7.57;;;4.20;;
52386;SDS011;38317;53.084;6.960;2023-07-09T04:51:03;7.30;;;4.20;;
52386;SDS011;38317;53.084;6.960;2023-07-09T04:53:29;6.22;;;3.72;;
52386;SDS011;38317;53.084;6.960;2023-07-09T04:55:55;9.75;;;4.32;;
52386;SDS011;38317;53.084;6.960;2023-07-09T04:58:21;6.53;;;4.05;;
52386;SDS011;38317;53.084;6.960;2023-07-09T05:00:47;6.03;;;3.80;;
52386;SDS011;38317;53.084;6.960;2023-07-09T05:03:13;6.32;;;3.63;;
52386;SDS011;38317;53.084;6.960;2023-07-09T05:05:46;7.40;;;4.10;;
52386;SDS011;38317;53.084;6.960;2023-07-09T05:08:12;8.23;;;3.97;;
52386;SDS011;38317;53.084;6.960;2023-07-09T05:10:42;8.43;;;3.65;;
52386;SDS011;38317;53.084;6.960;2023-07-09T05:13:15;6.85;;;3.88;;
52386;SDS011;38317;53.084;6.960;2023-07-09T05:15:41;8.57;;;4.18;;
52386;SDS011;38317;53.084;6.960;2023-07-09T05:18:09;7.25;;;4.13;;
52386;SDS011;38317;53.084;6.960;2023-07-09T05:20:36;6.65;;;3.83;;
52386;SDS011;38317;53.084;6.960;2023-07-09T05:23:02;8.23;;;3.80;;
52386;SDS011;38317;53.084;6.960;2023-07-09T05:25:28;5.82;;;3.63;;
52386;SDS011;38317;53.084;6.960;2023-07-09T05:27:54;6.85;;;3.90;;
52386;SDS011;38317;53.084;6.960;2023-07-09T05:30:20;7.10;;;3.75;;
52386;SDS011;38317;53.084;6.960;2023-07-09T05:32:45;7.22;;;3.92;;
52386;SDS011;38317;53.084;6.960;2023-07-09T05:35:11;7.00;;;3.90;;
52386;SDS011;38317;53.084;6.960;2023-07-09T05:37:37;8.05;;;3.85;;
52386;SDS011;38317;53.084;6.960;2023-07-09T05:40:04;6.38;;;3.65;;
52386;SDS011;38317;53.084;6.960;2023-07-09T05:42:31;6.07;;;3.50;;
52386;SDS011;38317;53.084;6.960;2023-07-09T05:44:57;7.57;;;3.80;;
52386;SDS011;38317;53.084;6.960;2023-07-09T05:47:23;7.85;;;4.03;;
52386;SDS011;38317;53.084;6.960;2023-07-09T05:49:49;6.60;;;4.13;;
52386;SDS011;38317;53.084;6.960;2023-07-09T05:52:16;6.72;;;3.58;;
52386;SDS011;38317;53.084;6.960;2023-07-09T05:54:43;8.63;;;4.57;;
52386;SDS011;38317;53.084;6.960;2023-07-09T05:57:09;6.90;;;3.90;;
52386;SDS011;38317;53.084;6.960;2023-07-09T05:59:35;7.43;;;3.45;;
52386;SDS011;38317;53.084;6.960;2023-07-09T06:02:01;6.53;;;3.58;;
52386;SDS011;38317;53.084;6.960;2023-07-09T06:04:28;6.03;;;3.40;;
52386;SDS011;38317;53.084;6.960;2023-07-09T06:06:56;8.60;;;4.28;;
52386;SDS011;38317;53.084;6.960;2023-07-09T06:09:22;6.03;;;3.20;;
52386;SDS011;38317;53.084;6.960;2023-07-09T06:11:48;6.25;;;3.55;;
52386;SDS011;38317;53.084;6.960;2023-07-09T06:14:14;6.75;;;3.88;;
52386;SDS011;38317;53.084;6.960;2023-07-09T06:16:42;6.05;;;3.67;;
52386;SDS011;38317;53.084;6.960;2023-07-09T06:19:08;7.93;;;3.85;;
52386;SDS011;38317;53.084;6.960;2023-07-09T06:21:35;9.13;;;3.95;;
52386;SDS011;38317;53.084;6.960;2023-07-09T06:24:01;8.90;;;3.67;;
52386;SDS011;38317;53.084;6.960;2023-07-09T06:26:26;7.82;;;3.75;;
52386;SDS011;38317;53.084;6.960;2023-07-09T06:28:52;8.52;;;3.53;;
52386;SDS011;38317;53.084;6.960;2023-07-09T06:31:18;6.95;;;3.63;;
52386;SDS011;38317;53.084;6.960;2023-07-09T06:33:46;7.80;;;4.20;;
52386;SDS011;38317;53.084;6.960;2023-07-09T06:36:13;8.95;;;4.63;;
52386;SDS011;38317;53.084;6.960;2023-07-09T06:38:38;7.78;;;4.00;;
52386;SDS011;38317;53.084;6.960;2023-07-09T06:41:04;6.38;;;3.67;;
52386;SDS011;38317;53.084;6.960;2023-07-09T06:43:30;7.63;;;3.92;;
52386;SDS011;38317;53.084;6.960;2023-07-09T06:45:58;7.63;;;4.00;;
52386;SDS011;38317;53.084;6.960;2023-07-09T06:48:25;7.68;;;3.80;;
52386;SDS011;38317;53.084;6.960;2023-07-09T06:50:52;7.15;;;3.58;;
52386;SDS011;38317;53.084;6.960;2023-07-09T06:53:19;7.35;;;3.63;;
52386;SDS011;38317;53.084;6.960;2023-07-09T06:55:46;9.93;;;3.80;;
52386;SDS011;38317;53.084;6.960;2023-07-09T06:58:12;8.23;;;3.95;;
52386;SDS011;38317;53.084;6.960;2023-07-09T07:00:38;9.57;;;4.45;;
52386;SDS011;38317;53.084;6.960;2023-07-09T07:03:05;9.05;;;4.10;;
52386;SDS011;38317;53.084;6.960;2023-07-09T07:05:31;7.63;;;3.97;;
52386;SDS011;38317;53.084;6.960;2023-07-09T07:07:57;7.93;;;3.90;;
52386;SDS011;38317;53.084;6.960;2023-07-09T07:10:24;7.68;;;4.22;;
52386;SDS011;38317;53.084;6.960;2023-07-09T07:12:51;10.13;;;5.18;;
52386;SDS011;38317;53.084;6.960;2023-07-09T07:15:18;8.10;;;4.75;;
52386;SDS011;38317;53.084;6.960;2023-07-09T07:17:44;9.25;;;5.25;;
52386;SDS011;38317;53.084;6.960;2023-07-09T07:20:11;12.13;;;5.18;;
52386;SDS011;38317;53.084;6.960;2023-07-09T07:22:38;9.73;;;4.40;;
52386;SDS011;38317;53.084;6.960;2023-07-09T07:25:05;7.85;;;4.45;;
52386;SDS011;38317;53.084;6.960;2023-07-09T07:27:31;10.00;;;5.03;;
52386;SDS011;38317;53.084;6.960;2023-07-09T07:29:57;8.38;;;4.43;;
52386;SDS011;38317;53.084;6.960;2023-07-09T07:32:23;8.25;;;4.20;;
52386;SDS011;38317;53.084;6.960;2023-07-09T07:34:49;7.47;;;4.30;;
52386;SDS011;38317;53.084;6.960;2023-07-09T07:37:17;7.65;;;4.15;;
52386;SDS011;38317;53.084;6.960;2023-07-09T07:39:44;8.00;;;4.38;;
52386;SDS011;38317;53.084;6.960;2023-07-09T07:42:10;12.27;;;5.40;;
52386;SDS011;38317;53.084;6.960;2023-07-09T07:44:36;7.97;;;4.78;;
52386;SDS011;38317;53.084;6.960;2023-07-09T07:47:02;8.60;;;4.68;;
52386;SDS011;38317;53.084;6.960;2023-07-09T07:49:28;10.43;;;5.30;;
52386;SDS011;38317;53.084;6.960;2023-07-09T07:51:54;9.25;;;4.35;;
52386;SDS011;38317;53.084;6.960;2023-07-09T07:54:20;8.98;;;4.90;;
52386;SDS011;38317;53.084;6.960;2023-07-09T07:56:46;8.23;;;4.43;;
52386;SDS011;38317;53.084;6.960;2023-07-09T07:59:12;9.43;;;4.30;;
52386;SDS011;38317;53.084;6.960;2023-07-09T08:01:39;10.15;;;5.07;;
52386;SDS011;38317;53.084;6.960;2023-07-09T08:04:05;8.23;;;4.10;;
52386;SDS011;38317;53.084;6.960;2023-07-09T08:06:31;9.43;;;4.28;;
52386;SDS011;38317;53.084;6.960;2023-07-09T08:08:57;10.32;;;3.97;;
52386;SDS011;38317;53.084;6.960;2023-07-09T08:11:23;7.90;;;4.07;;
52386;SDS011;38317;53.084;6.960;2023-07-09T08:13:49;9.73;;;4.30;;
52386;SDS011;38317;53.084;6.960;2023-07-09T08:16:16;8.52;;;4.22;;
52386;SDS011;38317;53.084;6.960;2023-07-09T08:18:42;8.38;;;3.75;;
52386;SDS011;38317;53.084;6.960;2023-07-09T08:21:07;9.27;;;4.30;;
52386;SDS011;38317;53.084;6.960;2023-07-09T08:23:34;8.80;;;4.43;;
52386;SDS011;38317;53.084;6.960;2023-07-09T08:26:00;8.13;;;4.10;;
52386;SDS011;38317;53.084;6.960;2023-07-09T08:28:28;7.93;;;3.83;;
52386;SDS011;38317;53.084;6.960;2023-07-09T08:30:55;8.40;;;4.30;;
52386;SDS011;38317;53.084;6.960;2023-07-09T08:33:21;7.80;;;4.28;;
52386;SDS011;38317;53.084;6.960;2023-07-09T08:35:49;9.93;;;4.43;;
52386;SDS011;38317;53.084;6.960;2023-07-09T08:38:15;8.48;;;4.32;;
52386;SDS011;38317;53.084;6.960;2023-07-09T08:40:42;7.82;;;4.00;;
52386;SDS011;38317;53.084;6.960;2023-07-09T08:46:21;9.05;;;4.07;;
52386;SDS011;38317;53.084;6.960;2023-07-09T08:49:03;7.95;;;4.07;;
52386;SDS011;38317;53.084;6.960;2023-07-09T08:51:40;9.32;;;4.43;;
52386;SDS011;38317;53.084;6.960;2023-07-09T08:54:15;7.43;;;3.75;;
52386;SDS011;38317;53.084;6.960;2023-07-09T08:56:50;7.15;;;3.45;;
52386;SDS011;38317;53.084;6.960;2023-07-09T08:59:16;7.47;;;3.58;;
52386;SDS011;38317;53.084;6.960;2023-07-09T09:01:51;9.20;;;4.18;;
52386;SDS011;38317;53.084;6.960;2023-07-09T09:04:29;10.45;;;3.97;;
52386;SDS011;38317;53.084;6.960;2023-07-09T09:07:22;7.97;;;3.78;;
52386;SDS011;38317;53.084;6.960;2023-07-09T09:09:57;8.00;;;3.35;;
52386;SDS011;38317;53.084;6.960;2023-07-09T09:12:28;7.07;;;3.70;;
52386;SDS011;38317;53.084;6.960;2023-07-09T09:15:04;7.28;;;3.80;;
52386;SDS011;38317;53.084;6.960;2023-07-09T09:17:40;7.53;;;3.72;;
52386;SDS011;38317;53.084;6.960;2023-07-09T09:20:16;7.13;;;3.50;;
52386;SDS011;38317;53.084;6.960;2023-07-09T09:25:31;8.07;;;3.42;;
52386;SDS011;38317;53.084;6.960;2023-07-09T09:27:59;7.55;;;3.75;;
52386;SDS011;38317;53.084;6.960;2023-07-09T09:30:26;7.18;;;3.40;;
52386;SDS011;38317;53.084;6.960;2023-07-09T09:35:24;7.95;;;3.45;;
52386;SDS011;38317;53.084;6.960;2023-07-09T09:37:56;7.82;;;3.45;;
52386;SDS011;38317;53.084;6.960;2023-07-09T09:40:23;8.10;;;3.40;;
52386;SDS011;38317;53.084;6.960;2023-07-09T09:42:50;7.25;;;3.65;;
52386;SDS011;38317;53.084;6.960;2023-07-09T09:45:19;5.63;;;3.22;;
52386;SDS011;38317;53.084;6.960;2023-07-09T09:47:47;9.02;;;5.57;;
52386;SDS011;38317;53.084;6.960;2023-07-09T09:50:17;7.80;;;3.85;;
52386;SDS011;38317;53.084;6.960;2023-07-09T09:52:47;7.07;;;3.30;;
52386;SDS011;38317;53.084;6.960;2023-07-09T09:55:18;6.30;;;3.03;;
52386;SDS011;38317;53.084;6.960;2023-07-09T09:57:48;6.93;;;3.00;;
52386;SDS011;38317;53.084;6.960;2023-07-09T10:00:15;7.90;;;4.03;;
52386;SDS011;38317;53.084;6.960;2023-07-09T10:02:42;8.23;;;4.03;;
52386;SDS011;38317;53.084;6.960;2023-07-09T10:05:16;6.63;;;3.20;;
52386;SDS011;38317;53.084;6.960;2023-07-09T10:10:56;6.18;;;3.15;;
52386;SDS011;38317;53.084;6.960;2023-07-09T10:13:32;7.22;;;3.30;;
52386;SDS011;38317;53.084;6.960;2023-07-09T10:26:44;6.53;;;2.78;;
52386;SDS011;38317;53.084;6.960;2023-07-09T10:40:10;5.25;;;2.88;;
52386;SDS011;38317;53.084;6.960;2023-07-09T10:45:11;6.68;;;3.40;;
52386;SDS011;38317;53.084;6.960;2023-07-09T10:47:55;6.00;;;3.35;;
52386;SDS011;38317;53.084;6.960;2023-07-09T10:50:31;5.00;;;2.90;;
52386;SDS011;38317;53.084;6.960;2023-07-09T10:53:11;5.45;;;3.00;;
52386;SDS011;38317;53.084;6.960;2023-07-09T10:55:53;5.25;;;2.92;;
52386;SDS011;38317;53.084;6.960;2023-07-09T11:00:54;7.65;;;2.88;;
52386;SDS011;38317;53.084;6.960;2023-07-09T11:03:54;6.38;;;2.88;;
52386;SDS011;38317;53.084;6.960;2023-07-09T11:06:20;5.55;;;2.70;;
52386;SDS011;38317;53.084;6.960;2023-07-09T11:08:50;6.07;;;2.70;;
52386;SDS011;38317;53.084;6.960;2023-07-09T11:14:09;7.45;;;2.70;;
52386;SDS011;38317;53.084;6.960;2023-07-09T11:16:46;7.20;;;2.90;;
52386;SDS011;38317;53.084;6.960;2023-07-09T11:19:19;6.20;;;2.40;;
52386;SDS011;38317;53.084;6.960;2023-07-09T11:22:05;7.45;;;3.47;;
52386;SDS011;38317;53.084;6.960;2023-07-09T11:27:26;4.78;;;2.47;;
52386;SDS011;38317;53.084;6.960;2023-07-09T11:29:56;4.40;;;2.50;;
52386;SDS011;38317;53.084;6.960;2023-07-09T11:32:46;5.30;;;2.50;;
52386;SDS011;38317;53.084;6.960;2023-07-09T11:35:19;6.93;;;2.83;;
52386;SDS011;38317;53.084;6.960;2023-07-09T11:37:46;4.78;;;2.47;;
52386;SDS011;38317;53.084;6.960;2023-07-09T11:40:12;7.47;;;2.78;;
52386;SDS011;38317;53.084;6.960;2023-07-09T11:42:58;3.85;;;2.22;;
52386;SDS011;38317;53.084;6.960;2023-07-09T11:45:28;7.13;;;2.60;;
52386;SDS011;38317;53.084;6.960;2023-07-09T11:48:20;5.70;;;2.80;;
52386;SDS011;38317;53.084;6.960;2023-07-09T11:50:50;5.90;;;2.60;;
52386;SDS011;38317;53.084;6.960;2023-07-09T11:53:22;8.75;;;2.85;;
52386;SDS011;38317;53.084;6.960;2023-07-09T11:56:02;5.32;;;2.80;;
52386;SDS011;38317;53.084;6.960;2023-07-09T11:58:28;6.05;;;2.55;;
52386;SDS011;38317;53.084;6.960;2023-07-09T12:00:54;5.50;;;2.38;;
52386;SDS011;38317;53.084;6.960;2023-07-09T12:03:26;5.47;;;2.28;;
52386;SDS011;38317;53.084;6.960;2023-07-09T12:06:05;4.13;;;2.25;;
52386;SDS011;38317;53.084;6.960;2023-07-09T12:08:42;9.65;;;3.60;;
52386;SDS011;38317;53.084;6.960;2023-07-09T12:11:20;9.45;;;2.25;;
52386;SDS011;38317;53.084;6.960;2023-07-09T12:13:51;5.35;;;2.20;;
52386;SDS011;38317;53.084;6.960;2023-07-09T12:16:25;5.47;;;2.25;;
52386;SDS011;38317;53.084;6.960;2023-07-09T12:18:55;4.55;;;2.13;;
52386;SDS011;38317;53.084;6.960;2023-07-09T12:21:22;5.50;;;2.17;;
52386;SDS011;38317;53.084;6.960;2023-07-09T12:23:49;6.20;;;2.55;;
52386;SDS011;38317;53.084;6.960;2023-07-09T12:26:17;5.25;;;2.20;;
52386;SDS011;38317;53.084;6.960;2023-07-09T12:28:55;6.60;;;2.67;;
52386;SDS011;38317;53.084;6.960;2023-07-09T12:31:26;6.13;;;2.60;;
52386;SDS011;38317;53.084;6.960;2023-07-09T12:33:54;4.45;;;2.00;;
52386;SDS011;38317;53.084;6.960;2023-07-09T12:36:22;7.75;;;2.70;;
52386;SDS011;38317;53.084;6.960;2023-07-09T12:38:50;3.55;;;1.90;;
52386;SDS011;38317;53.084;6.960;2023-07-09T12:41:19;5.93;;;2.30;;
52386;SDS011;38317;53.084;6.960;2023-07-09T12:43:54;4.85;;;2.08;;
52386;SDS011;38317;53.084;6.960;2023-07-09T12:46:24;6.95;;;2.20;;
52386;SDS011;38317;53.084;6.960;2023-07-09T12:48:50;4.88;;;2.20;;
52386;SDS011;38317;53.084;6.960;2023-07-09T12:51:27;5.93;;;2.35;;
52386;SDS011;38317;53.084;6.960;2023-07-09T12:54:05;5.60;;;2.17;;
52386;SDS011;38317;53.084;6.960;2023-07-09T12:56:39;4.60;;;2.20;;
52386;SDS011;38317;53.084;6.960;2023-07-09T12:59:15;4.03;;;2.03;;
52386;SDS011;38317;53.084;6.960;2023-07-09T13:02:02;5.38;;;2.10;;
52386;SDS011;38317;53.084;6.960;2023-07-09T13:04:42;4.55;;;2.00;;
52386;SDS011;38317;53.084;6.960;2023-07-09T13:09:53;6.32;;;2.72;;
52386;SDS011;38317;53.084;6.960;2023-07-09T13:12:20;7.35;;;2.42;;
52386;SDS011;38317;53.084;6.960;2023-07-09T13:14:54;5.05;;;2.13;;
52386;SDS011;38317;53.084;6.960;2023-07-09T13:17:20;7.20;;;2.10;;
52386;SDS011;38317;53.084;6.960;2023-07-09T13:19:46;5.38;;;2.30;;
52386;SDS011;38317;53.084;6.960;2023-07-09T13:22:13;5.35;;;2.10;;
52386;SDS011;38317;53.084;6.960;2023-07-09T13:24:40;4.03;;;2.38;;
52386;SDS011;38317;53.084;6.960;2023-07-09T13:27:13;4.05;;;1.77;;
52386;SDS011;38317;53.084;6.960;2023-07-09T13:29:39;4.05;;;2.15;;
52386;SDS011;38317;53.084;6.960;2023-07-09T13:32:10;5.18;;;2.08;;
52386;SDS011;38317;53.084;6.960;2023-07-09T13:34:38;4.15;;;1.95;;
52386;SDS011;38317;53.084;6.960;2023-07-09T13:37:05;4.45;;;2.03;;
52386;SDS011;38317;53.084;6.960;2023-07-09T13:39:36;7.65;;;2.65;;
52386;SDS011;38317;53.084;6.960;2023-07-09T13:42:02;5.03;;;2.13;;
52386;SDS011;38317;53.084;6.960;2023-07-09T13:44:30;5.55;;;2.50;;
52386;SDS011;38317;53.084;6.960;2023-07-09T13:46:56;4.70;;;1.90;;
52386;SDS011;38317;53.084;6.960;2023-07-09T13:49:23;7.35;;;2.15;;
52386;SDS011;38317;53.084;6.960;2023-07-09T13:51:51;4.30;;;2.20;;
52386;SDS011;38317;53.084;6.960;2023-07-09T13:54:23;4.03;;;2.00;;
52386;SDS011;38317;53.084;6.960;2023-07-09T13:57:01;5.28;;;1.83;;
52386;SDS011;38317;53.084;6.960;2023-07-09T13:59:27;5.13;;;1.95;;
52386;SDS011;38317;53.084;6.960;2023-07-09T14:01:56;6.05;;;2.15;;
52386;SDS011;38317;53.084;6.960;2023-07-09T14:04:23;4.57;;;2.22;;
52386;SDS011;38317;53.084;6.960;2023-07-09T14:06:51;4.93;;;2.20;;
52386;SDS011;38317;53.084;6.960;2023-07-09T14:09:17;4.90;;;2.33;;
52386;SDS011;38317;53.084;6.960;2023-07-09T14:11:48;4.78;;;2.20;;
52386;SDS011;38317;53.084;6.960;2023-07-09T14:16:47;5.03;;;2.10;;
52386;SDS011;38317;53.084;6.960;2023-07-09T14:19:15;4.68;;;2.05;;
52386;SDS011;38317;53.084;6.960;2023-07-09T14:24:19;4.88;;;2.00;;
52386;SDS011;38317;53.084;6.960;2023-07-09T14:26:50;5.53;;;2.28;;
52386;SDS011;38317;53.084;6.960;2023-07-09T14:29:17;4.40;;;2.03;;
52386;SDS011;38317;53.084;6.960;2023-07-09T14:31:44;5.07;;;2.13;;
52386;SDS011;38317;53.084;6.960;2023-07-09T14:34:32;4.72;;;2.10;;
52386;SDS011;38317;53.084;6.960;2023-07-09T14:36:58;4.07;;;2.08;;
52386;SDS011;38317;53.084;6.960;2023-07-09T14:39:26;4.15;;;2.22;;
52386;SDS011;38317;53.084;6.960;2023-07-09T14:41:53;7.00;;;2.40;;
52386;SDS011;38317;53.084;6.960;2023-07-09T14:44:29;4.07;;;2.10;;
52386;SDS011;38317;53.084;6.960;2023-07-09T14:46:57;4.90;;;2.13;;
52386;SDS011;38317;53.084;6.960;2023-07-09T14:49:25;3.85;;;2.15;;
52386;SDS011;38317;53.084;6.960;2023-07-09T14:51:51;5.30;;;2.40;;
52386;SDS011;38317;53.084;6.960;2023-07-09T14:54:19;7.50;;;1.90;;
52386;SDS011;38317;53.084;6.960;2023-07-09T14:56:53;4.97;;;2.10;;
52386;SDS011;38317;53.084;6.960;2023-07-09T14:59:19;4.82;;;2.03;;
52386;SDS011;38317;53.084;6.960;2023-07-09T15:01:45;4.95;;;2.38;;
52386;SDS011;38317;53.084;6.960;2023-07-09T15:06:47;5.45;;;2.00;;
52386;SDS011;38317;53.084;6.960;2023-07-09T15:09:14;5.13;;;2.08;;
52386;SDS011;38317;53.084;6.960;2023-07-09T15:11:42;6.18;;;2.40;;
52386;SDS011;38317;53.084;6.960;2023-07-09T15:14:11;4.18;;;2.10;;
52386;SDS011;38317;53.084;6.960;2023-07-09T15:16:37;5.28;;;2.13;;
52386;SDS011;38317;53.084;6.960;2023-07-09T15:19:36;3.72;;;2.10;;
52386;SDS011;38317;53.084;6.960;2023-07-09T15:21:55;5.25;;;2.10;;
52386;SDS011;38317;53.084;6.960;2023-07-09T15:24:22;8.80;;;2.45;;
52386;SDS011;38317;53.084;6.960;2023-07-09T15:26:56;5.00;;;2.53;;
52386;SDS011;38317;53.084;6.960;2023-07-09T15:29:25;5.45;;;2.40;;
52386;SDS011;38317;53.084;6.960;2023-07-09T15:31:51;4.57;;;2.22;;
52386;SDS011;38317;53.084;6.960;2023-07-09T15:34:17;6.00;;;2.67;;
52386;SDS011;38317;53.084;6.960;2023-07-09T15:36:45;5.18;;;2.25;;
52386;SDS011;38317;53.084;6.960;2023-07-09T15:39:14;5.05;;;2.28;;
52386;SDS011;38317;53.084;6.960;2023-07-09T15:41:43;6.45;;;2.47;;
52386;SDS011;38317;53.084;6.960;2023-07-09T15:44:11;5.47;;;2.50;;
52386;SDS011;38317;53.084;6.960;2023-07-09T15:46:44;6.57;;;2.60;;
52386;SDS011;38317;53.084;6.960;2023-07-09T15:49:16;5.97;;;2.72;;
52386;SDS011;38317;53.084;6.960;2023-07-09T15:51:41;9.77;;;3.45;;
52386;SDS011;38317;53.084;6.960;2023-07-09T15:54:14;73.97;;;7.15;;